Time;durP1;ratioP1;P1;durP2;ratioP2;P2;SDS_P1;SDS_P2;PMS_P1;PMS_P2;Temp;Humidity;BMP_temperature;BMP_pressure;BME280_temperature;BME280_humidity;BME280_pressure;Samples;Min_cycle;Max_cycle;Signal;HPM_P1;HPM_P2
2021/06/22 00:00:10;;;;;;;4.70;4.30;;;21.10;95.60;;;;;;5008111;28;20483;-75
2021/06/22 00:02:39;;;;;;;5.00;4.60;;;21.10;95.60;;;;;;5014726;28;20455;-75
2021/06/22 00:05:06;;;;;;;5.60;5.00;;;21.10;95.60;;;;;;5008549;28;20462;-75
2021/06/22 00:07:36;;;;;;;5.40;4.90;;;21.00;95.80;;;;;;4985677;28;20455;-75
2021/06/22 00:10:04;;;;;;;5.40;4.90;;;20.90;95.90;;;;;;5025997;28;21203;-74
2021/06/22 00:12:30;;;;;;;4.53;4.10;;;20.80;95.90;;;;;;5028047;28;20856;-76
2021/06/22 00:14:56;;;;;;;4.60;4.20;;;20.70;96.10;;;;;;5027037;28;20463;-74
2021/06/22 00:17:22;;;;;;;3.30;3.00;;;20.70;96.30;;;;;;5026605;28;20216;-75
2021/06/22 00:19:53;;;;;;;4.10;3.70;;;20.60;96.10;;;;;;4991083;28;20693;-75
2021/06/22 00:22:19;;;;;;;4.67;3.90;;;20.50;96.20;;;;;;4967898;28;20294;-75
2021/06/22 00:24:45;;;;;;;3.90;3.60;;;20.60;96.10;;;;;;5024894;28;20534;-74
2021/06/22 00:27:12;;;;;;;3.67;3.20;;;20.50;96.10;;;;;;4995141;28;20220;-75
2021/06/22 00:29:42;;;;;;;3.70;3.40;;;20.50;96.10;;;;;;5010965;28;20216;-75
2021/06/22 00:32:08;;;;;;;3.40;3.10;;;20.50;96.40;;;;;;5006064;28;20452;-75
2021/06/22 00:34:34;;;;;;;5.37;4.10;;;20.50;96.30;;;;;;5012484;28;20478;-75
2021/06/22 00:36:59;;;;;;;2.70;2.50;;;20.40;96.30;;;;;;5017828;28;20224;-77
2021/06/22 00:39:25;;;;;;;3.37;3.07;;;20.40;96.40;;;;;;5011067;28;20231;-74
2021/06/22 00:41:53;;;;;;;3.67;3.37;;;20.30;96.30;;;;;;5012845;28;20309;-74
2021/06/22 00:44:19;;;;;;;3.00;2.70;;;20.20;96.40;;;;;;4994461;28;20836;-74
2021/06/22 00:46:45;;;;;;;3.60;3.30;;;20.20;96.50;;;;;;5016695;28;20513;-74
2021/06/22 00:49:10;;;;;;;3.53;3.23;;;20.20;96.70;;;;;;5012811;28;20329;-74
2021/06/22 00:51:39;;;;;;;2.87;2.67;;;20.20;96.60;;;;;;5009005;28;20208;-74
2021/06/22 00:54:05;;;;;;;3.90;3.60;;;20.20;96.60;;;;;;5010581;28;20453;-73
2021/06/22 00:56:36;;;;;;;3.77;3.40;;;20.20;96.60;;;;;;4995824;28;20224;-74
2021/06/22 00:59:02;;;;;;;3.80;3.50;;;20.20;96.60;;;;;;5014026;28;20450;-74
2021/06/22 01:01:29;;;;;;;3.47;3.17;;;20.20;96.50;;;;;;5013608;28;20517;-74
2021/06/22 01:03:56;;;;;;;4.50;4.10;;;20.10;96.60;;;;;;5016677;28;20239;-74
2021/06/22 01:06:32;;;;;;;3.93;3.53;;;20.00;96.70;;;;;;4961861;28;20452;-74
2021/06/22 01:09:14;;;;;;;3.77;3.43;;;20.00;96.70;;;;;;4998230;28;20217;-74
2021/06/22 01:11:40;;;;;;;3.27;3.03;;;20.00;96.80;;;;;;4994119;28;20809;-75
2021/06/22 01:14:08;;;;;;;4.07;3.67;;;20.00;96.70;;;;;;5006402;28;20283;-74
2021/06/22 01:16:34;;;;;;;2.97;2.73;;;20.00;96.70;;;;;;4978035;28;20462;-74
2021/06/22 01:19:03;;;;;;;3.13;2.83;;;20.00;96.90;;;;;;4996735;28;20475;-73
2021/06/22 01:21:44;;;;;;;3.27;3.07;;;19.90;96.80;;;;;;4995286;28;20479;-74
2021/06/22 01:24:41;;;;;;;4.23;3.83;;;19.90;96.80;;;;;;4990186;28;20455;-74
2021/06/22 01:27:20;;;;;;;3.57;3.27;;;19.90;96.80;;;;;;4990738;28;21132;-74
2021/06/22 01:29:47;;;;;;;3.70;3.40;;;19.90;96.70;;;;;;4994535;28;20458;-74
2021/06/22 01:32:16;;;;;;;3.13;2.87;;;20.00;96.40;;;;;;4985178;28;20467;-74
2021/06/22 01:34:43;;;;;;;3.40;3.10;;;19.90;96.50;;;;;;5015336;28;20495;-74
2021/06/22 01:37:09;;;;;;;3.97;3.57;;;19.80;96.60;;;;;;4995925;28;20530;-74
2021/06/22 01:39:50;;;;;;;5.33;3.23;;;19.90;96.50;;;;;;4978531;28;20452;-74
2021/06/22 01:42:21;;;;;;;3.40;3.10;;;20.00;96.60;;;;;;4969400;28;20474;-74
2021/06/22 01:44:52;;;;;;;2.67;2.47;;;20.00;96.50;;;;;;5001611;28;20558;-74
2021/06/22 01:47:31;;;;;;;3.70;3.10;;;20.00;96.40;;;;;;5007256;28;20764;-74
2021/06/22 01:50:04;;;;;;;3.20;2.90;;;20.10;96.40;;;;;;4999451;28;20467;-74
2021/06/22 01:52:34;;;;;;;3.97;3.67;;;20.10;96.30;;;;;;5007964;28;20534;-74
2021/06/22 01:58:25;;;;;;;3.20;2.90;;;20.10;96.10;;;;;;4994558;28;20509;-74
2021/06/22 02:02:06;;;;;;;2.67;2.47;;;20.10;96.20;;;;;;4980941;28;20509;-74
2021/06/22 02:04:51;;;;;;;3.50;3.20;;;20.00;96.10;;;;;;4979597;28;20463;-74
2021/06/22 02:07:37;;;;;;;2.93;2.73;;;20.00;96.00;;;;;;4990530;28;20469;-74
2021/06/22 02:10:13;;;;;;;3.83;3.53;;;20.00;96.10;;;;;;5019777;28;20968;-74
2021/06/22 02:12:58;;;;;;;3.03;2.73;;;20.00;96.10;;;;;;5022216;28;20466;-73
2021/06/22 02:15:31;;;;;;;3.50;3.20;;;20.00;96.10;;;;;;5011405;28;20471;-74
2021/06/22 02:17:58;;;;;;;3.17;2.93;;;19.90;96.00;;;;;;5003927;28;20468;-73
2021/06/22 02:20:24;;;;;;;2.80;2.60;;;19.90;96.00;;;;;;4985082;28;20477;-74
2021/06/22 02:22:50;;;;;;;3.40;3.10;;;19.90;96.10;;;;;;4994309;28;20545;-74
2021/06/22 02:25:18;;;;;;;3.50;3.20;;;19.90;96.10;;;;;;4989201;28;20513;-74
2021/06/22 02:27:44;;;;;;;3.27;2.97;;;19.90;96.00;;;;;;5000991;28;20468;-74
2021/06/22 02:30:20;;;;;;;3.17;2.97;;;19.90;96.10;;;;;;4960991;28;20237;-74
2021/06/22 02:32:47;;;;;;;2.73;2.53;;;19.80;96.00;;;;;;4992557;28;20455;-74
2021/06/22 02:35:43;;;;;;;;;;;;;;;;;;;;;
2021/06/22 02:38:34;;;;;;;2.87;2.67;;;19.80;96.10;;;;;;5025892;28;20500;-74
2021/06/22 02:41:22;;;;;;;4.20;3.37;;;19.80;96.10;;;;;;4984995;28;20557;-74
2021/06/22 02:44:00;;;;;;;3.77;3.43;;;19.80;96.10;;;;;;5011764;28;20296;-74
2021/06/22 02:46:36;;;;;;;3.33;3.13;;;19.80;96.10;;;;;;4998230;28;20459;-74
2021/06/22 02:50:13;;;;;;;3.23;2.93;;;19.80;96.20;;;;;;4946131;28;20848;-74
2021/06/22 02:53:34;;;;;;;;;;;;;;;;;;;;;
2021/06/22 02:56:54;;;;;;;3.47;3.17;;;19.80;96.60;;;;;;5029826;28;21136;-74
2021/06/22 02:59:29;;;;;;;2.67;2.47;;;19.70;96.70;;;;;;4972450;28;20507;-75
2021/06/22 03:02:11;;;;;;;3.60;3.30;;;19.60;96.50;;;;;;4988186;28;20487;-75
2021/06/22 03:05:06;;;;;;;3.83;2.90;;;19.60;96.20;;;;;;4984423;28;20516;-75
2021/06/22 03:07:43;;;;;;;3.27;3.07;;;19.60;96.10;;;;;;4990307;28;20932;-75
2021/06/22 03:14:12;;;;;;;2.90;2.63;;;19.40;96.70;;;;;;4930868;29;20499;-75
2021/06/22 03:17:58;;;;;;;2.80;2.60;;;19.30;96.80;;;;;;4926465;29;20451;-75
2021/06/22 03:21:47;;;;;;;3.13;2.83;;;19.30;96.80;;;;;;4920765;29;20424;-75
2021/06/22 03:28:19;;;;;;;3.10;2.80;;;19.30;96.90;;;;;;4906122;29;21150;-74
2021/06/22 03:39:17;;;;;;;18.13;11.93;;;19.10;96.90;;;;;;4977410;22;20490;-75
2021/06/22 03:50:06;;;;;;;;;;;;;;;;;;;;;
2021/06/22 03:53:38;;;;;;;2.83;2.60;;;19.10;96.70;;;;;;4897108;29;20452;-77
2021/06/22 03:56:08;;;;;;;2.73;2.53;;;19.20;97.00;;;;;;4824440;29;20487;-77
2021/06/22 04:03:01;;;;;;;2.30;1.97;;;19.20;96.70;;;;;;4894992;29;21331;-76
2021/06/22 04:24:12;;;;;;;2.57;2.03;;;19.20;96.90;;;;;;5007411;28;20439;-74
2021/06/22 04:37:49;;;;;;;1.60;1.50;;;19.10;97.20;;;;;;5040986;28;20411;-74
2021/06/22 04:44:26;;;;;;;1.93;1.70;;;19.10;97.10;;;;;;4947758;28;20512;-74
2021/06/22 04:50:28;;;;;;;2.27;1.70;;;19.10;97.00;;;;;;5151943;22;20524;-73
2021/06/22 04:52:56;;;;;;;1.67;1.47;;;19.10;97.20;;;;;;5025958;28;20446;-73
2021/06/22 04:55:28;;;;;;;3.63;1.90;;;19.10;97.10;;;;;;5044974;28;20232;-74
2021/06/22 04:58:02;;;;;;;2.60;2.10;;;19.10;97.10;;;;;;5018201;28;20878;-74
2021/06/22 05:01:12;;;;;;;1.90;1.80;;;19.10;97.50;;;;;;5030259;28;20975;-74
2021/06/22 05:14:54;;;;;;;1.83;1.70;;;19.10;97.50;;;;;;4986870;28;20439;-74
2021/06/22 05:17:20;;;;;;;2.00;1.90;;;19.10;97.70;;;;;;4973537;28;20487;-73
2021/06/22 05:26:35;;;;;;;1.40;1.30;;;19.10;97.60;;;;;;4997396;28;21050;-74
2021/06/22 05:29:25;;;;;;;2.10;2.00;;;19.20;98.10;;;;;;4962406;23;20566;-74
2021/06/22 05:32:23;;;;;;;1.93;1.83;;;19.20;98.10;;;;;;4923829;29;20435;-75
2021/06/22 05:35:33;;;;;;;1.77;1.67;;;19.20;97.90;;;;;;4929820;29;20471;-74
2021/06/22 05:38:56;;;;;;;2.03;1.90;;;19.20;98.30;;;;;;4901646;29;20439;-74
2021/06/22 05:41:35;;;;;;;;;;;;;;;;;;;;;
2021/06/22 05:44:15;;;;;;;2.60;1.87;;;19.20;98.20;;;;;;4917795;29;20456;-74
2021/06/22 05:50:36;;;;;;;2.20;1.57;;;19.20;98.40;;;;;;4941163;29;20445;-74
2021/06/22 05:56:24;;;;;;;1.90;1.80;;;19.20;98.80;;;;;;4952122;28;20582;-74
2021/06/22 06:02:51;;;;;;;1.30;1.20;;;19.20;98.80;;;;;;4990750;28;20220;-74
2021/06/22 06:05:55;;;;;;;1.80;1.70;;;19.20;98.70;;;;;;5020474;28;20508;-74
2021/06/22 06:08:20;;;;;;;1.17;1.10;;;19.20;99.00;;;;;;5016295;23;20492;-74
2021/06/22 06:15:41;;;;;;;2.60;1.30;;;19.10;99.60;;;;;;5032187;28;20332;-74
2021/06/22 06:23:49;;;;;;;1.23;1.13;;;19.00;99.20;;;;;;5014984;28;20531;-76
2021/06/22 06:33:35;;;;;;;1.57;1.13;;;19.00;99.30;;;;;;5032285;28;20482;-76
2021/06/22 06:46:48;;;;;;;0.70;0.70;;;19.00;99.50;;;;;;5035058;28;20492;-76
2021/06/22 06:49:14;;;;;;;0.90;0.90;;;19.00;99.40;;;;;;5014686;28;20450;-76
2021/06/22 06:52:21;;;;;;;0.90;0.90;;;19.00;99.20;;;;;;5022133;28;20509;-76
2021/06/22 07:06:55;;;;;;;1.10;1.00;;;19.10;99.60;;;;;;5006295;28;20575;-75
2021/06/22 07:09:46;;;;;;;1.93;1.10;;;19.10;99.50;;;;;;4990633;28;20468;-75
2021/06/22 07:16:41;;;;;;;3.03;1.53;;;19.10;99.60;;;;;;4915038;29;20283;-75
2021/06/22 07:22:29;;;;;;;1.73;1.63;;;19.10;99.90;;;;;;5075837;22;20559;-76
2021/06/22 07:25:29;;;;;;;2.07;1.87;;;19.20;99.70;;;;;;5015298;28;20447;-77
2021/06/22 07:28:04;;;;;;;1.67;1.57;;;19.20;99.90;;;;;;5036514;28;20860;-76
2021/06/22 07:34:38;;;;;;;5.13;1.50;;;19.30;99.60;;;;;;5024634;28;21336;-76
2021/06/22 07:40:40;;;;;;;1.97;1.87;;;19.30;99.60;;;;;;5009612;28;20538;-77
2021/06/22 07:43:58;;;;;;;1.30;1.20;;;19.30;99.80;;;;;;5002465;28;20913;-74
2021/06/22 07:50:13;;;;;;;1.57;1.47;;;19.30;99.90;;;;;;5175433;23;21028;-75
2021/06/22 08:23:24;;;;;;;1.37;1.27;;;19.50;99.90;;;;;;5163604;22;21066;-74
2021/06/22 08:29:42;;;;;;;1.30;1.30;;;19.60;99.90;;;;;;5334899;22;20533;-75
2021/06/22 08:36:30;;;;;;;1.00;1.00;;;19.70;99.90;;;;;;4967490;28;20527;-74
2021/06/22 08:42:43;;;;;;;1.47;1.37;;;19.80;99.90;;;;;;5007131;28;20616;-74
2021/06/22 08:45:59;;;;;;;1.40;1.30;;;19.90;99.90;;;;;;4971916;28;20469;-75
2021/06/22 09:02:44;;;;;;;0.87;0.87;;;19.80;99.00;;;;;;5028193;28;20398;-74
2021/06/22 09:12:30;;;;;;;0.90;0.90;;;19.90;99.10;;;;;;5023469;28;20464;-74
2021/06/22 09:19:25;;;;;;;1.20;1.03;;;19.90;98.70;;;;;;5357117;22;20490;-75
2021/06/22 09:32:27;;;;;;;1.43;1.33;;;19.70;98.20;;;;;;5401025;22;20504;-76
2021/06/22 09:42:51;;;;;;;0.90;0.90;;;19.70;98.10;;;;;;5051247;28;20448;-75
2021/06/22 09:49:10;;;;;;;1.33;1.23;;;19.80;98.10;;;;;;5368898;22;20492;-74
2021/06/22 09:51:58;;;;;;;1.00;1.00;;;19.80;98.10;;;;;;5019638;28;20459;-74
2021/06/22 09:55:02;;;;;;;2.70;1.20;;;19.80;97.90;;;;;;5001720;28;20504;-76
2021/06/22 09:57:31;;;;;;;1.43;1.33;;;19.80;98.00;;;;;;5000706;28;20457;-76
2021/06/22 10:00:45;;;;;;;0.80;0.80;;;19.80;97.90;;;;;;5003218;28;20578;-76
2021/06/22 10:10:16;;;;;;;3.50;1.10;;;19.80;98.00;;;;;;5046191;28;20854;-73
2021/06/22 10:12:44;;;;;;;1.33;0.80;;;19.80;97.90;;;;;;5017750;28;20447;-73
2021/06/22 10:15:13;;;;;;;0.90;0.90;;;19.80;98.10;;;;;;5010965;28;20224;-73
2021/06/22 10:21:18;;;;;;;1.50;0.97;;;19.80;98.00;;;;;;5191342;23;20552;-75
2021/06/22 10:24:30;;;;;;;1.73;1.00;;;19.90;97.90;;;;;;5004414;28;20473;-75
2021/06/22 10:26:58;;;;;;;1.03;1.03;;;19.90;98.20;;;;;;5007478;28;20454;-74
2021/06/22 10:44:27;;;;;;;0.90;0.90;;;19.90;98.20;;;;;;5049314;28;20592;-76
2021/06/22 10:50:43;;;;;;;1.00;1.00;;;20.00;98.70;;;;;;5218702;22;20541;-74
2021/06/22 10:57:09;;;;;;;1.13;1.00;;;20.00;99.00;;;;;;5031643;28;20832;-74
2021/06/22 10:59:35;;;;;;;1.10;1.10;;;20.00;99.20;;;;;;5008454;28;21407;-74
2021/06/22 11:02:01;;;;;;;1.50;1.40;;;20.00;99.50;;;;;;4980210;28;20450;-74
2021/06/22 11:08:15;;;;;;;1.27;1.17;;;20.10;99.50;;;;;;5027055;28;21065;-74
2021/06/22 11:10:54;;;;;;;1.30;1.20;;;20.10;99.40;;;;;;5014095;28;20471;-74
2021/06/22 11:13:41;;;;;;;2.30;1.20;;;20.10;99.50;;;;;;4999290;28;20716;-74
2021/06/22 11:17:02;;;;;;;1.27;1.00;;;20.10;99.70;;;;;;4990734;28;20487;-73
2021/06/22 11:20:06;;;;;;;1.20;1.17;;;20.10;99.30;;;;;;5310008;22;20480;-74
2021/06/22 11:30:05;;;;;;;1.40;1.30;;;20.20;99.50;;;;;;5093217;23;20571;-74
2021/06/22 11:32:36;;;;;;;2.50;1.20;;;20.10;99.50;;;;;;5013864;28;20489;-74
2021/06/22 11:35:21;;;;;;;1.00;1.00;;;20.20;99.60;;;;;;5016688;28;21022;-74
2021/06/22 11:38:13;;;;;;;3.23;2.93;;;20.20;99.90;;;;;;5038476;28;21007;-74
2021/06/22 11:44:35;;;;;;;1.30;1.20;;;20.20;99.90;;;;;;5033273;28;20449;-75
2021/06/22 11:50:27;;;;;;;4.07;1.57;;;20.20;99.90;;;;;;5024397;28;20471;-75
2021/06/22 11:53:35;;;;;;;1.50;1.40;;;20.20;99.70;;;;;;5024015;28;20457;-74
2021/06/22 11:56:13;;;;;;;1.20;1.10;;;20.20;99.90;;;;;;5004082;28;20454;-74
2021/06/22 11:58:41;;;;;;;1.50;1.40;;;20.30;99.70;;;;;;5017740;28;20545;-75
2021/06/22 12:01:07;;;;;;;1.77;1.67;;;20.20;99.70;;;;;;4997524;28;20470;-74
2021/06/22 12:03:33;;;;;;;1.57;1.47;;;20.20;99.90;;;;;;5014202;28;20451;-74
2021/06/22 12:06:05;;;;;;;1.20;1.07;;;20.20;99.90;;;;;;5012060;28;20690;-75
2021/06/22 12:08:36;;;;;;;1.50;1.40;;;20.20;99.90;;;;;;5005765;28;20466;-75
2021/06/22 12:11:02;;;;;;;1.50;1.40;;;20.20;99.90;;;;;;5005672;28;20549;-75
2021/06/22 12:13:32;;;;;;;1.80;1.70;;;20.20;99.90;;;;;;5013761;28;20542;-75
2021/06/22 12:16:16;;;;;;;1.90;1.80;;;20.20;99.90;;;;;;5020937;28;20609;-75
2021/06/22 12:18:41;;;;;;;1.80;1.70;;;20.10;99.90;;;;;;5032555;28;20461;-75
2021/06/22 12:21:08;;;;;;;1.67;1.57;;;20.10;99.90;;;;;;5024303;28;20450;-75
2021/06/22 12:23:34;;;;;;;2.20;2.00;;;20.10;99.90;;;;;;5030624;28;20230;-75
2021/06/22 12:26:00;;;;;;;2.40;2.20;;;20.00;99.90;;;;;;5009453;28;20477;-75
2021/06/22 12:28:32;;;;;;;1.73;1.50;;;19.90;99.90;;;;;;5019022;28;20226;-75
2021/06/22 12:31:01;;;;;;;1.97;1.87;;;19.90;99.90;;;;;;5031677;28;20591;-75
2021/06/22 12:33:48;;;;;;;2.93;2.00;;;19.90;99.90;;;;;;5032799;28;20462;-75
2021/06/22 12:36:19;;;;;;;2.10;2.00;;;19.90;99.90;;;;;;5030720;28;20528;-75
2021/06/22 12:38:56;;;;;;;2.03;1.93;;;19.90;99.90;;;;;;5017186;28;20473;-75
2021/06/22 12:41:30;;;;;;;2.03;1.93;;;19.90;99.90;;;;;;5025186;28;20819;-75
2021/06/22 12:44:05;;;;;;;3.17;2.13;;;19.90;99.90;;;;;;5026838;28;20453;-75
2021/06/22 12:46:43;;;;;;;1.77;1.67;;;19.90;99.90;;;;;;5024209;28;20465;-75
2021/06/22 12:49:23;;;;;;;1.70;1.60;;;19.90;99.90;;;;;;5048245;28;20465;-75
2021/06/22 12:51:50;;;;;;;2.10;2.00;;;19.90;99.90;;;;;;5032783;28;20449;-75
2021/06/22 12:54:24;;;;;;;3.97;2.20;;;19.90;99.90;;;;;;5023441;28;20469;-75
2021/06/22 12:56:53;;;;;;;1.60;1.50;;;19.90;99.90;;;;;;5009169;28;20474;-75
2021/06/22 12:59:22;;;;;;;1.60;1.50;;;19.90;99.90;;;;;;5024668;28;20450;-75
2021/06/22 13:01:56;;;;;;;2.10;2.00;;;19.90;99.90;;;;;;4987335;28;20490;-75
2021/06/22 13:05:24;;;;;;;2.17;1.97;;;20.00;99.90;;;;;;5000010;28;20473;-74
2021/06/22 13:07:59;;;;;;;2.50;2.30;;;19.90;99.90;;;;;;4967394;28;20467;-75
2021/06/22 13:10:51;;;;;;;3.93;2.00;;;20.00;99.90;;;;;;5036510;28;20751;-74
2021/06/22 13:13:39;;;;;;;2.00;1.90;;;20.00;99.90;;;;;;5009036;28;20830;-75
2021/06/22 13:16:50;;;;;;;2.43;1.93;;;19.90;99.90;;;;;;4983191;28;20471;-75
2021/06/22 13:19:28;;;;;;;1.87;1.77;;;20.00;99.90;;;;;;4965708;28;20510;-75
2021/06/22 13:22:07;;;;;;;2.50;2.30;;;20.00;99.90;;;;;;5018798;28;20863;-75
2021/06/22 13:25:05;;;;;;;4.40;2.50;;;20.00;99.90;;;;;;4988716;28;20931;-75
2021/06/22 13:31:42;;;;;;;2.17;2.03;;;20.00;99.90;;;;;;4900172;29;20474;-75
2021/06/22 13:37:28;;;;;;;2.23;2.10;;;20.00;99.90;;;;;;4950758;28;21134;-75
2021/06/22 13:40:48;;;;;;;2.37;2.20;;;20.00;99.90;;;;;;4922798;28;20892;-75
2021/06/22 13:44:43;;;;;;;3.60;3.23;;;20.00;99.90;;;;;;4906669;29;20531;-75
2021/06/22 13:48:32;;;;;;;2.30;2.10;;;20.00;99.90;;;;;;4865028;29;20568;-74
2021/06/22 13:52:14;;;;;;;;;;;;;;;;;;;;;
2021/06/22 13:55:30;;;;;;;2.87;2.67;;;20.10;99.90;;;;;;4891362;29;20563;-75
2021/06/22 13:58:29;;;;;;;2.83;2.63;;;20.10;99.90;;;;;;4944583;23;20453;-74
2021/06/22 14:01:22;;;;;;;2.33;2.13;;;20.10;99.90;;;;;;4976711;28;20510;-74
2021/06/22 14:04:09;;;;;;;2.80;2.60;;;20.20;99.90;;;;;;5007482;28;20517;-74
2021/06/22 14:06:35;;;;;;;4.13;2.80;;;20.20;99.90;;;;;;5007630;28;20454;-74
2021/06/22 14:13:13;;;;;;;2.50;2.13;;;20.20;99.90;;;;;;4957759;28;20484;-74
2021/06/22 14:19:50;;;;;;;2.57;2.37;;;20.20;99.90;;;;;;5261721;22;20470;-75
2021/06/22 14:26:32;;;;;;;2.27;2.10;;;20.20;99.90;;;;;;4986766;28;20284;-75
2021/06/22 14:33:05;;;;;;;2.27;2.07;;;20.40;99.90;;;;;;4988974;28;20500;-74
2021/06/22 14:36:12;;;;;;;2.80;2.40;;;20.40;99.90;;;;;;4968008;28;20524;-74
2021/06/22 14:38:46;;;;;;;2.53;2.33;;;20.40;99.90;;;;;;5000180;28;20468;-75
2021/06/22 14:55:07;;;;;;;2.40;2.20;;;20.50;99.90;;;;;;5013845;28;20797;-74
2021/06/22 15:01:30;;;;;;;2.67;2.43;;;20.40;99.90;;;;;;5068573;22;21078;-74
2021/06/22 15:03:56;;;;;;;2.43;2.23;;;20.50;99.90;;;;;;5041370;28;20429;-77
2021/06/22 15:06:31;;;;;;;3.37;2.83;;;20.50;99.90;;;;;;5016885;28;20507;-75
2021/06/22 15:09:16;;;;;;;3.00;2.80;;;20.50;99.90;;;;;;5024958;28;20250;-74
2021/06/22 15:12:29;;;;;;;2.70;2.50;;;20.60;99.90;;;;;;5042277;28;20425;-75
2021/06/22 15:15:30;;;;;;;2.73;2.53;;;20.60;99.90;;;;;;5013422;28;20443;-75
2021/06/22 15:21:16;;;;;;;2.27;2.17;;;20.60;99.90;;;;;;5172835;23;20545;-75
2021/06/22 15:24:32;;;;;;;2.50;2.30;;;20.60;99.90;;;;;;5037506;28;20426;-74
2021/06/22 15:26:58;;;;;;;1.93;1.83;;;20.60;99.90;;;;;;5035576;28;20438;-74
2021/06/22 15:33:27;;;;;;;2.43;2.33;;;20.60;99.90;;;;;;5021289;28;20702;-74
2021/06/22 15:36:06;;;;;;;2.80;2.60;;;20.60;99.90;;;;;;4986340;28;20520;-75
2021/06/22 15:38:31;;;;;;;2.87;2.67;;;20.60;99.90;;;;;;4990920;28;20582;-74
2021/06/22 15:43:55;;;;;;;2.83;2.63;;;20.60;99.90;;;;;;4995049;28;20295;-74
2021/06/22 15:46:52;;;;;;;2.07;1.97;;;20.60;99.90;;;;;;4993923;28;20446;-74
2021/06/22 15:49:22;;;;;;;2.90;2.40;;;20.60;99.90;;;;;;5258311;23;20519;-74
2021/06/22 15:52:28;;;;;;;2.40;2.20;;;20.70;99.90;;;;;;5017033;28;20809;-74
2021/06/22 15:54:54;;;;;;;2.47;2.27;;;20.70;99.90;;;;;;5013920;28;20447;-74
2021/06/22 15:57:20;;;;;;;2.63;2.43;;;20.70;99.90;;;;;;5027341;28;20447;-74
2021/06/22 16:07:11;;;;;;;2.33;2.07;;;20.70;99.90;;;;;;4969975;28;20533;-76
2021/06/22 16:09:59;;;;;;;2.43;2.00;;;20.70;99.90;;;;;;4972120;28;20819;-76
2021/06/22 16:13:02;;;;;;;2.73;2.27;;;20.70;99.90;;;;;;4981685;28;20469;-76
2021/06/22 16:19:46;;;;;;;2.83;2.50;;;20.70;99.90;;;;;;4973637;28;20445;-76
2021/06/22 16:32:42;;;;;;;2.80;2.60;;;20.70;99.90;;;;;;5254363;23;20517;-76
2021/06/22 16:50:39;;;;;;;2.80;2.60;;;20.70;99.90;;;;;;5280846;23;20464;-76
2021/06/22 17:00:40;;;;;;;2.53;2.33;;;20.80;99.90;;;;;;6079539;23;20473;-76
2021/06/22 17:06:31;;;;;;;2.70;2.50;;;20.80;99.90;;;;;;5048046;28;20426;-76
2021/06/22 17:26:31;;;;;;;2.67;2.47;;;20.80;99.90;;;;;;5012132;28;20527;-75
2021/06/22 17:31:55;;;;;;;3.10;2.50;;;20.70;99.90;;;;;;5627014;22;20511;-76
2021/06/22 17:42:28;;;;;;;2.90;2.47;;;20.80;99.90;;;;;;5011221;28;20426;-76
2021/06/22 17:45:13;;;;;;;3.60;3.30;;;20.80;99.90;;;;;;5004570;28;20447;-76
2021/06/22 17:48:13;;;;;;;3.17;2.93;;;20.80;99.90;;;;;;4995643;28;20443;-76
2021/06/22 17:54:29;;;;;;;3.40;3.20;;;20.70;99.90;;;;;;5006116;28;20856;-76
2021/06/22 18:01:07;;;;;;;2.60;2.40;;;20.70;99.90;;;;;;6112898;23;20443;-75
2021/06/22 18:04:29;;;;;;;2.93;2.73;;;20.80;99.90;;;;;;5005327;28;20530;-75
2021/06/22 18:06:55;;;;;;;2.97;2.50;;;20.80;99.90;;;;;;4974679;28;20430;-75
2021/06/22 18:13:17;;;;;;;3.93;2.80;;;20.70;99.90;;;;;;5016487;28;20219;-75
2021/06/22 18:16:12;;;;;;;3.27;2.97;;;20.70;99.90;;;;;;4998322;28;20538;-75
2021/06/22 18:18:50;;;;;;;2.83;2.50;;;20.60;99.90;;;;;;5321694;23;21131;-75
2021/06/22 18:21:25;;;;;;;3.60;3.00;;;20.70;99.90;;;;;;5022508;28;20435;-75
2021/06/22 18:24:05;;;;;;;2.90;2.67;;;20.60;99.90;;;;;;5008815;28;20463;-74
2021/06/22 18:26:43;;;;;;;4.00;3.33;;;20.60;99.90;;;;;;5000198;28;20834;-75
2021/06/22 18:32:10;;;;;;;2.73;2.53;;;20.50;99.90;;;;;;5529837;23;20901;-77
2021/06/22 18:34:43;;;;;;;2.50;2.30;;;20.60;99.90;;;;;;5048352;28;20440;-77
2021/06/22 18:37:12;;;;;;;2.80;2.60;;;20.60;99.90;;;;;;5037990;28;20482;-77
2021/06/22 18:43:25;;;;;;;2.60;2.40;;;20.60;99.90;;;;;;5036858;28;20430;-77
2021/06/22 18:46:38;;;;;;;2.03;1.93;;;20.50;99.90;;;;;;4995474;28;20460;-77
2021/06/22 18:55:42;;;;;;;2.80;2.60;;;20.50;99.90;;;;;;5010319;28;21055;-77
2021/06/22 19:09:12;;;;;;;3.57;3.27;;;20.40;99.90;;;;;;5015612;28;20529;-77
2021/06/22 19:15:33;;;;;;;4.13;3.43;;;20.40;99.90;;;;;;5026466;28;20577;-77
2021/06/22 19:18:07;;;;;;;4.37;3.70;;;20.40;99.90;;;;;;5012523;28;20463;-76
2021/06/22 19:21:13;;;;;;;3.47;3.17;;;20.40;99.90;;;;;;5017873;28;20439;-77
2021/06/22 19:24:28;;;;;;;3.97;3.17;;;20.40;99.90;;;;;;5009958;28;20994;-76
2021/06/22 19:27:04;;;;;;;4.13;3.73;;;20.40;99.90;;;;;;5029929;28;20442;-77
2021/06/22 19:29:37;;;;;;;3.10;2.80;;;20.40;99.90;;;;;;5184630;23;21079;-76
2021/06/22 19:32:15;;;;;;;4.60;3.70;;;20.40;99.90;;;;;;5010967;28;21020;-76
2021/06/22 19:35:19;;;;;;;3.97;3.60;;;20.40;99.90;;;;;;5015123;28;20470;-76
2021/06/22 19:37:48;;;;;;;4.10;3.70;;;20.40;99.90;;;;;;5024809;28;20427;-76
2021/06/22 19:40:55;;;;;;;3.63;3.30;;;20.40;99.90;;;;;;5052717;28;20519;-76
2021/06/22 19:50:35;;;;;;;4.07;3.67;;;20.40;99.90;;;;;;5161806;23;21292;-76
2021/06/22 19:53:41;;;;;;;6.03;3.40;;;20.30;99.90;;;;;;5014189;28;20528;-76
2021/06/22 20:07:40;;;;;;;4.37;3.40;;;20.30;99.90;;;;;;5037323;28;20451;-75
2021/06/22 20:20:56;;;;;;;5.20;4.43;;;20.20;99.90;;;;;;5030583;28;20499;-77
2021/06/22 20:23:22;;;;;;;4.17;3.47;;;20.20;99.90;;;;;;5025528;28;20442;-75
2021/06/22 20:42:40;;;;;;;3.97;3.60;;;20.10;99.90;;;;;;5011280;28;20459;-76
2021/06/22 20:45:46;;;;;;;4.37;3.93;;;20.00;99.90;;;;;;5008720;28;20468;-77
2021/06/22 20:48:20;;;;;;;4.10;3.70;;;20.00;99.90;;;;;;4947385;28;20272;-76
2021/06/22 20:51:17;;;;;;;3.80;3.47;;;20.00;99.90;;;;;;4951538;28;20422;-76
2021/06/22 20:54:28;;;;;;;4.10;3.63;;;19.90;99.90;;;;;;4969082;28;20487;-77
2021/06/22 21:13:08;;;;;;;4.10;3.07;;;19.90;99.90;;;;;;5018892;28;20450;-75
2021/06/22 21:20:04;;;;;;;4.03;3.63;;;19.90;99.90;;;;;;5269873;23;20803;-75
2021/06/22 21:22:45;;;;;;;3.93;3.37;;;19.80;99.90;;;;;;5020430;28;20423;-76
2021/06/22 21:25:35;;;;;;;4.37;3.30;;;19.80;99.90;;;;;;5037894;28;20457;-76
2021/06/22 21:30:52;;;;;;;3.83;3.53;;;19.80;99.90;;;;;;5413964;23;20296;-75
2021/06/22 21:37:21;;;;;;;4.07;3.40;;;19.60;99.90;;;;;;5039701;28;20512;-75
2021/06/22 21:39:57;;;;;;;4.50;3.57;;;19.70;99.90;;;;;;5036971;23;20496;-75
2021/06/22 21:50:15;;;;;;;3.80;3.50;;;19.70;99.90;;;;;;5114566;23;20512;-75
2021/06/22 21:52:45;;;;;;;3.20;2.90;;;19.70;99.90;;;;;;5042954;28;20561;-75
2021/06/22 22:03:17;;;;;;;3.03;2.80;;;19.70;99.90;;;;;;5044005;28;20514;-75
2021/06/22 22:06:30;;;;;;;3.40;3.10;;;19.60;99.90;;;;;;5016271;28;20477;-75
2021/06/22 22:13:33;;;;;;;3.87;3.40;;;19.60;99.90;;;;;;5030147;28;20415;-75
2021/06/22 22:16:39;;;;;;;2.90;2.70;;;19.60;99.90;;;;;;4995913;28;20459;-75
2021/06/22 22:19:08;;;;;;;8.23;4.00;;;19.60;99.90;;;;;;5121592;23;20590;-75
2021/06/22 22:25:36;;;;;;;3.90;3.60;;;19.60;99.90;;;;;;5033346;28;20946;-75
2021/06/22 22:28:49;;;;;;;4.23;3.87;;;19.50;99.90;;;;;;5006110;23;20445;-75
2021/06/22 22:35:22;;;;;;;4.63;3.10;;;19.50;99.90;;;;;;5038657;28;20387;-75
2021/06/22 22:37:48;;;;;;;3.30;3.10;;;19.40;99.90;;;;;;4994081;28;20915;-75
2021/06/22 22:50:34;;;;;;;3.60;3.27;;;19.40;99.90;;;;;;5041160;28;20520;-76
2021/06/22 23:04:31;;;;;;;3.90;3.47;;;19.20;99.90;;;;;;5034079;28;20397;-75
2021/06/22 23:10:25;;;;;;;4.27;3.87;;;19.20;99.90;;;;;;5025818;28;20973;-75
2021/06/22 23:13:15;;;;;;;3.50;3.20;;;19.20;99.90;;;;;;5015909;28;20447;-75
2021/06/22 23:19:37;;;;;;;3.10;2.87;;;19.20;99.90;;;;;;5255680;22;20495;-75
2021/06/22 23:22:33;;;;;;;11.43;3.57;;;19.20;99.90;;;;;;4990329;28;20923;-75
2021/06/22 23:25:42;;;;;;;3.57;3.10;;;19.20;99.90;;;;;;5035856;28;20425;-75
2021/06/22 23:31:40;;;;;;;3.90;3.60;;;19.10;99.90;;;;;;5049912;23;20536;-75
2021/06/22 23:34:12;;;;;;;4.60;3.67;;;19.10;99.90;;;;;;5009664;28;20432;-75
2021/06/22 23:40:02;;;;;;;3.40;3.07;;;19.10;99.90;;;;;;5047625;28;20455;-75
2021/06/22 23:43:01;;;;;;;3.93;3.60;;;19.10;99.90;;;;;;5018251;28;20966;-75
2021/06/22 23:49:31;;;;;;;3.00;2.77;;;19.10;99.90;;;;;;5102773;23;20484;-76
2021/06/22 23:52:18;;;;;;;3.40;3.20;;;19.00;99.90;;;;;;5017055;28;20461;-75
2021/06/22 23:59:05;;;;;;;4.03;3.73;;;19.00;99.90;;;;;;5149494;23;20497;-75
